Airport View

Enter AWOS ICAO identifier for current METAR.

ex. KFNL

K0VG 100450Z AUTO 00000KT 10SM 22/21 A2998 RMK AO2

10 Jul 2020 04:52

Frequency: 120.125

Phone: 276-346-3333

Other Area AWOS: KI35 - K1A6 - KMOR - KGCY

TAF KTRI 092331Z 1000/1024 00000KT P6SM SCT050 SCT250 FM101000 00000KT 4SM BR SCT009 FM101300 00000KT P6SM SCT035 PROB30 1016/1018 4SM -SHRA BR BKN050 FM101900 24005KT P6SM -SHRA VCTS SCT050CB FM102100 25006KT P6SM -SHRA VCTS BKN040CB